sensor_id;sensor_type;location;lat;lon;timestamp;P1;durP1;ratioP1;P2;durP2;ratioP2
24277;SDS011;12394;42.692;23.314;2022-12-18T00:00:04;8.20;;;6.43;;
24277;SDS011;12394;42.692;23.314;2022-12-18T00:02:30;9.33;;;6.13;;
24277;SDS011;12394;42.692;23.314;2022-12-18T00:04:56;9.67;;;6.47;;
24277;SDS011;12394;42.692;23.314;2022-12-18T00:07:24;8.13;;;6.60;;
24277;SDS011;12394;42.692;23.314;2022-12-18T00:09:49;9.20;;;7.17;;
24277;SDS011;12394;42.692;23.314;2022-12-18T00:12:15;9.87;;;6.90;;
24277;SDS011;12394;42.692;23.314;2022-12-18T00:14:40;10.67;;;7.03;;
24277;SDS011;12394;42.692;23.314;2022-12-18T00:17:08;10.67;;;7.63;;
24277;SDS011;12394;42.692;23.314;2022-12-18T00:19:34;9.93;;;7.23;;
24277;SDS011;12394;42.692;23.314;2022-12-18T00:21:59;12.10;;;7.67;;
24277;SDS011;12394;42.692;23.314;2022-12-18T00:24:24;11.07;;;7.43;;
24277;SDS011;12394;42.692;23.314;2022-12-18T00:26:50;10.23;;;7.17;;
24277;SDS011;12394;42.692;23.314;2022-12-18T00:29:15;9.60;;;6.97;;
24277;SDS011;12394;42.692;23.314;2022-12-18T00:31:41;11.43;;;8.20;;
24277;SDS011;12394;42.692;23.314;2022-12-18T00:34:09;9.13;;;7.77;;
24277;SDS011;12394;42.692;23.314;2022-12-18T00:36:37;10.50;;;8.17;;
24277;SDS011;12394;42.692;23.314;2022-12-18T00:39:03;11.43;;;7.80;;
24277;SDS011;12394;42.692;23.314;2022-12-18T00:41:30;9.87;;;7.10;;
24277;SDS011;12394;42.692;23.314;2022-12-18T00:44:15;10.27;;;7.50;;
24277;SDS011;12394;42.692;23.314;2022-12-18T00:46:42;10.57;;;7.10;;
24277;SDS011;12394;42.692;23.314;2022-12-18T00:49:08;9.23;;;6.53;;
24277;SDS011;12394;42.692;23.314;2022-12-18T00:51:37;11.03;;;6.90;;
24277;SDS011;12394;42.692;23.314;2022-12-18T00:54:02;8.90;;;6.17;;
24277;SDS011;12394;42.692;23.314;2022-12-18T00:56:28;9.13;;;6.73;;
24277;SDS011;12394;42.692;23.314;2022-12-18T00:58:53;9.50;;;6.97;;
24277;SDS011;12394;42.692;23.314;2022-12-18T01:01:19;9.57;;;6.93;;
24277;SDS011;12394;42.692;23.314;2022-12-18T01:03:44;9.47;;;6.77;;
24277;SDS011;12394;42.692;23.314;2022-12-18T01:06:13;9.10;;;6.57;;
24277;SDS011;12394;42.692;23.314;2022-12-18T01:08:39;11.20;;;7.67;;
24277;SDS011;12394;42.692;23.314;2022-12-18T01:11:08;11.03;;;7.80;;
24277;SDS011;12394;42.692;23.314;2022-12-18T01:13:35;10.00;;;6.83;;
24277;SDS011;12394;42.692;23.314;2022-12-18T01:16:01;11.17;;;7.80;;
24277;SDS011;12394;42.692;23.314;2022-12-18T01:18:26;10.93;;;8.27;;
24277;SDS011;12394;42.692;23.314;2022-12-18T01:20:51;10.53;;;8.23;;
24277;SDS011;12394;42.692;23.314;2022-12-18T01:23:17;15.07;;;7.97;;
24277;SDS011;12394;42.692;23.314;2022-12-18T01:25:42;11.77;;;8.47;;
24277;SDS011;12394;42.692;23.314;2022-12-18T01:28:09;12.53;;;9.43;;
24277;SDS011;12394;42.692;23.314;2022-12-18T01:30:34;15.60;;;9.53;;
24277;SDS011;12394;42.692;23.314;2022-12-18T01:32:59;14.80;;;9.70;;
24277;SDS011;12394;42.692;23.314;2022-12-18T01:35:25;14.37;;;8.70;;
24277;SDS011;12394;42.692;23.314;2022-12-18T01:37:53;14.73;;;9.60;;
24277;SDS011;12394;42.692;23.314;2022-12-18T01:40:20;11.97;;;9.30;;
24277;SDS011;12394;42.692;23.314;2022-12-18T01:42:49;11.83;;;8.43;;
24277;SDS011;12394;42.692;23.314;2022-12-18T01:47:44;14.97;;;8.83;;
24277;SDS011;12394;42.692;23.314;2022-12-18T01:50:16;13.27;;;8.50;;
24277;SDS011;12394;42.692;23.314;2022-12-18T01:55:38;12.23;;;8.83;;
24277;SDS011;12394;42.692;23.314;2022-12-18T01:58:09;11.57;;;8.43;;
24277;SDS011;12394;42.692;23.314;2022-12-18T02:00:35;11.93;;;8.23;;
24277;SDS011;12394;42.692;23.314;2022-12-18T02:03:00;12.53;;;9.23;;
24277;SDS011;12394;42.692;23.314;2022-12-18T02:05:40;13.13;;;8.17;;
24277;SDS011;12394;42.692;23.314;2022-12-18T02:16:23;11.80;;;8.33;;
24277;SDS011;12394;42.692;23.314;2022-12-18T02:18:56;12.80;;;7.67;;
24277;SDS011;12394;42.692;23.314;2022-12-18T02:21:30;11.00;;;7.07;;
24277;SDS011;12394;42.692;23.314;2022-12-18T02:26:55;10.13;;;6.83;;
24277;SDS011;12394;42.692;23.314;2022-12-18T02:29:25;11.57;;;6.67;;
24277;SDS011;12394;42.692;23.314;2022-12-18T02:31:57;10.87;;;7.43;;
24277;SDS011;12394;42.692;23.314;2022-12-18T02:34:26;9.67;;;6.40;;
24277;SDS011;12394;42.692;23.314;2022-12-18T02:36:54;11.53;;;8.17;;
24277;SDS011;12394;42.692;23.314;2022-12-18T02:39:22;10.33;;;8.30;;
24277;SDS011;12394;42.692;23.314;2022-12-18T02:41:51;9.80;;;8.07;;
24277;SDS011;12394;42.692;23.314;2022-12-18T02:44:17;11.50;;;7.63;;
24277;SDS011;12394;42.692;23.314;2022-12-18T02:46:44;10.77;;;7.30;;
24277;SDS011;12394;42.692;23.314;2022-12-18T02:49:18;10.73;;;7.20;;
24277;SDS011;12394;42.692;23.314;2022-12-18T02:52:17;9.80;;;7.20;;
24277;SDS011;12394;42.692;23.314;2022-12-18T02:57:48;11.47;;;8.13;;
24277;SDS011;12394;42.692;23.314;2022-12-18T03:02:59;11.33;;;8.57;;
24277;SDS011;12394;42.692;23.314;2022-12-18T03:05:45;14.50;;;8.63;;
24277;SDS011;12394;42.692;23.314;2022-12-18T03:08:20;12.57;;;8.83;;
24277;SDS011;12394;42.692;23.314;2022-12-18T03:10:50;10.97;;;8.27;;
24277;SDS011;12394;42.692;23.314;2022-12-18T03:13:28;11.17;;;7.50;;
24277;SDS011;12394;42.692;23.314;2022-12-18T03:15:59;9.90;;;7.67;;
24277;SDS011;12394;42.692;23.314;2022-12-18T03:21:02;12.13;;;7.90;;
24277;SDS011;12394;42.692;23.314;2022-12-18T03:23:33;9.80;;;7.33;;
24277;SDS011;12394;42.692;23.314;2022-12-18T03:26:04;12.17;;;8.87;;
24277;SDS011;12394;42.692;23.314;2022-12-18T03:28:34;11.20;;;8.53;;
24277;SDS011;12394;42.692;23.314;2022-12-18T03:31:03;12.97;;;8.10;;
24277;SDS011;12394;42.692;23.314;2022-12-18T03:33:46;13.17;;;8.27;;
24277;SDS011;12394;42.692;23.314;2022-12-18T03:36:17;11.07;;;7.77;;
24277;SDS011;12394;42.692;23.314;2022-12-18T03:38:42;12.03;;;7.93;;
24277;SDS011;12394;42.692;23.314;2022-12-18T03:47:11;12.00;;;8.23;;
24277;SDS011;12394;42.692;23.314;2022-12-18T03:49:50;12.30;;;7.70;;
24277;SDS011;12394;42.692;23.314;2022-12-18T03:52:33;9.27;;;7.13;;
24277;SDS011;12394;42.692;23.314;2022-12-18T03:55:03;12.13;;;7.33;;
24277;SDS011;12394;42.692;23.314;2022-12-18T03:57:32;10.80;;;8.40;;
24277;SDS011;12394;42.692;23.314;2022-12-18T04:00:19;11.17;;;8.10;;
24277;SDS011;12394;42.692;23.314;2022-12-18T04:02:45;11.53;;;7.83;;
24277;SDS011;12394;42.692;23.314;2022-12-18T04:05:15;11.73;;;6.80;;
24277;SDS011;12394;42.692;23.314;2022-12-18T04:07:42;9.87;;;8.00;;
24277;SDS011;12394;42.692;23.314;2022-12-18T04:10:10;12.03;;;8.43;;
24277;SDS011;12394;42.692;23.314;2022-12-18T04:12:37;13.47;;;8.97;;
24277;SDS011;12394;42.692;23.314;2022-12-18T04:15:03;12.43;;;8.67;;
24277;SDS011;12394;42.692;23.314;2022-12-18T04:17:29;13.37;;;8.77;;
24277;SDS011;12394;42.692;23.314;2022-12-18T04:19:55;11.90;;;8.90;;
24277;SDS011;12394;42.692;23.314;2022-12-18T04:22:20;14.47;;;9.23;;
24277;SDS011;12394;42.692;23.314;2022-12-18T04:24:45;13.37;;;9.83;;
24277;SDS011;12394;42.692;23.314;2022-12-18T04:27:11;11.60;;;7.80;;
24277;SDS011;12394;42.692;23.314;2022-12-18T04:29:36;14.83;;;8.60;;
24277;SDS011;12394;42.692;23.314;2022-12-18T04:32:02;13.47;;;9.10;;
24277;SDS011;12394;42.692;23.314;2022-12-18T04:34:27;13.43;;;10.07;;
24277;SDS011;12394;42.692;23.314;2022-12-18T04:36:52;19.80;;;9.10;;
24277;SDS011;12394;42.692;23.314;2022-12-18T04:39:18;14.53;;;9.73;;
24277;SDS011;12394;42.692;23.314;2022-12-18T04:41:43;16.90;;;10.63;;
24277;SDS011;12394;42.692;23.314;2022-12-18T04:44:09;16.67;;;10.60;;
24277;SDS011;12394;42.692;23.314;2022-12-18T04:46:34;13.53;;;8.57;;
24277;SDS011;12394;42.692;23.314;2022-12-18T04:48:59;14.67;;;10.10;;
24277;SDS011;12394;42.692;23.314;2022-12-18T04:51:31;18.23;;;10.87;;
24277;SDS011;12394;42.692;23.314;2022-12-18T04:53:58;15.77;;;9.70;;
24277;SDS011;12394;42.692;23.314;2022-12-18T04:56:24;15.13;;;10.33;;
24277;SDS011;12394;42.692;23.314;2022-12-18T04:58:49;17.10;;;10.80;;
24277;SDS011;12394;42.692;23.314;2022-12-18T05:01:15;15.70;;;10.23;;
24277;SDS011;12394;42.692;23.314;2022-12-18T05:03:45;17.70;;;11.50;;
24277;SDS011;12394;42.692;23.314;2022-12-18T05:06:10;15.87;;;10.33;;
24277;SDS011;12394;42.692;23.314;2022-12-18T05:08:36;17.20;;;11.57;;
24277;SDS011;12394;42.692;23.314;2022-12-18T05:11:02;17.90;;;12.10;;
24277;SDS011;12394;42.692;23.314;2022-12-18T05:13:30;18.13;;;11.83;;
24277;SDS011;12394;42.692;23.314;2022-12-18T05:15:56;20.30;;;11.53;;
24277;SDS011;12394;42.692;23.314;2022-12-18T05:18:22;19.77;;;11.37;;
24277;SDS011;12394;42.692;23.314;2022-12-18T05:20:49;18.33;;;11.10;;
24277;SDS011;12394;42.692;23.314;2022-12-18T05:23:15;19.63;;;12.23;;
24277;SDS011;12394;42.692;23.314;2022-12-18T05:25:40;20.60;;;12.50;;
24277;SDS011;12394;42.692;23.314;2022-12-18T05:28:05;19.00;;;12.60;;
24277;SDS011;12394;42.692;23.314;2022-12-18T05:30:31;21.60;;;12.67;;
24277;SDS011;12394;42.692;23.314;2022-12-18T05:32:56;20.67;;;12.20;;
24277;SDS011;12394;42.692;23.314;2022-12-18T05:35:22;19.23;;;12.70;;
24277;SDS011;12394;42.692;23.314;2022-12-18T05:37:47;17.53;;;11.30;;
24277;SDS011;12394;42.692;23.314;2022-12-18T05:40:12;19.90;;;11.43;;
24277;SDS011;12394;42.692;23.314;2022-12-18T05:42:38;17.93;;;11.13;;
24277;SDS011;12394;42.692;23.314;2022-12-18T05:45:04;19.70;;;11.27;;
24277;SDS011;12394;42.692;23.314;2022-12-18T05:47:30;18.30;;;12.07;;
24277;SDS011;12394;42.692;23.314;2022-12-18T05:49:55;19.83;;;12.17;;
24277;SDS011;12394;42.692;23.314;2022-12-18T05:52:21;20.93;;;11.83;;
24277;SDS011;12394;42.692;23.314;2022-12-18T05:54:46;19.90;;;12.40;;
24277;SDS011;12394;42.692;23.314;2022-12-18T05:57:12;21.27;;;12.77;;
24277;SDS011;12394;42.692;23.314;2022-12-18T05:59:37;21.37;;;11.57;;
24277;SDS011;12394;42.692;23.314;2022-12-18T06:02:02;20.03;;;12.63;;
24277;SDS011;12394;42.692;23.314;2022-12-18T06:04:28;17.70;;;12.53;;
24277;SDS011;12394;42.692;23.314;2022-12-18T06:06:56;18.93;;;12.37;;
24277;SDS011;12394;42.692;23.314;2022-12-18T06:09:22;20.33;;;13.10;;
24277;SDS011;12394;42.692;23.314;2022-12-18T06:11:48;18.33;;;11.87;;
24277;SDS011;12394;42.692;23.314;2022-12-18T06:14:13;18.53;;;12.60;;
24277;SDS011;12394;42.692;23.314;2022-12-18T06:16:38;19.70;;;11.80;;
24277;SDS011;12394;42.692;23.314;2022-12-18T06:19:04;19.03;;;11.80;;
24277;SDS011;12394;42.692;23.314;2022-12-18T06:21:30;19.43;;;12.10;;
24277;SDS011;12394;42.692;23.314;2022-12-18T06:23:56;20.47;;;13.03;;
24277;SDS011;12394;42.692;23.314;2022-12-18T06:26:22;19.67;;;12.73;;
24277;SDS011;12394;42.692;23.314;2022-12-18T06:28:47;21.07;;;12.97;;
24277;SDS011;12394;42.692;23.314;2022-12-18T06:31:12;19.50;;;11.80;;
24277;SDS011;12394;42.692;23.314;2022-12-18T06:33:38;19.00;;;12.20;;
24277;SDS011;12394;42.692;23.314;2022-12-18T06:36:05;20.60;;;13.67;;
24277;SDS011;12394;42.692;23.314;2022-12-18T06:38:33;20.90;;;12.50;;
24277;SDS011;12394;42.692;23.314;2022-12-18T06:40:59;21.13;;;13.17;;
24277;SDS011;12394;42.692;23.314;2022-12-18T06:43:25;20.87;;;12.53;;
24277;SDS011;12394;42.692;23.314;2022-12-18T06:45:50;22.23;;;13.33;;
24277;SDS011;12394;42.692;23.314;2022-12-18T06:48:20;20.60;;;12.57;;
24277;SDS011;12394;42.692;23.314;2022-12-18T06:50:47;20.73;;;12.77;;
24277;SDS011;12394;42.692;23.314;2022-12-18T06:53:12;18.43;;;12.27;;
24277;SDS011;12394;42.692;23.314;2022-12-18T06:55:38;21.10;;;12.67;;
24277;SDS011;12394;42.692;23.314;2022-12-18T06:58:04;20.50;;;11.20;;
24277;SDS011;12394;42.692;23.314;2022-12-18T07:00:29;16.73;;;11.07;;
24277;SDS011;12394;42.692;23.314;2022-12-18T07:02:54;16.63;;;11.10;;
24277;SDS011;12394;42.692;23.314;2022-12-18T07:05:20;16.27;;;10.90;;
24277;SDS011;12394;42.692;23.314;2022-12-18T07:07:45;16.00;;;11.73;;
24277;SDS011;12394;42.692;23.314;2022-12-18T07:10:10;18.13;;;11.53;;
24277;SDS011;12394;42.692;23.314;2022-12-18T07:12:36;19.33;;;12.57;;
24277;SDS011;12394;42.692;23.314;2022-12-18T07:15:01;16.43;;;10.93;;
24277;SDS011;12394;42.692;23.314;2022-12-18T07:17:27;21.00;;;12.57;;
24277;SDS011;12394;42.692;23.314;2022-12-18T07:19:53;21.00;;;13.47;;
24277;SDS011;12394;42.692;23.314;2022-12-18T07:22:18;19.67;;;12.93;;
24277;SDS011;12394;42.692;23.314;2022-12-18T07:24:44;25.13;;;14.87;;
24277;SDS011;12394;42.692;23.314;2022-12-18T07:27:09;22.77;;;13.77;;
24277;SDS011;12394;42.692;23.314;2022-12-18T07:29:34;19.67;;;12.83;;
24277;SDS011;12394;42.692;23.314;2022-12-18T07:32:00;29.20;;;15.20;;
24277;SDS011;12394;42.692;23.314;2022-12-18T07:34:25;26.27;;;15.77;;
24277;SDS011;12394;42.692;23.314;2022-12-18T07:36:50;24.30;;;13.93;;
24277;SDS011;12394;42.692;23.314;2022-12-18T07:39:16;24.40;;;14.83;;
24277;SDS011;12394;42.692;23.314;2022-12-18T07:41:41;25.07;;;15.27;;
24277;SDS011;12394;42.692;23.314;2022-12-18T07:44:11;24.80;;;15.50;;
24277;SDS011;12394;42.692;23.314;2022-12-18T07:46:37;28.37;;;16.70;;
24277;SDS011;12394;42.692;23.314;2022-12-18T07:49:02;27.67;;;16.10;;
24277;SDS011;12394;42.692;23.314;2022-12-18T07:51:28;27.43;;;16.40;;
24277;SDS011;12394;42.692;23.314;2022-12-18T07:53:53;24.77;;;15.90;;
24277;SDS011;12394;42.692;23.314;2022-12-18T07:56:19;26.13;;;16.47;;
24277;SDS011;12394;42.692;23.314;2022-12-18T07:58:44;23.23;;;15.17;;
24277;SDS011;12394;42.692;23.314;2022-12-18T08:01:12;27.03;;;16.30;;
24277;SDS011;12394;42.692;23.314;2022-12-18T08:03:39;26.03;;;17.20;;
24277;SDS011;12394;42.692;23.314;2022-12-18T08:06:06;26.43;;;17.63;;
24277;SDS011;12394;42.692;23.314;2022-12-18T08:08:33;25.27;;;15.87;;
24277;SDS011;12394;42.692;23.314;2022-12-18T08:11:01;29.80;;;16.63;;
24277;SDS011;12394;42.692;23.314;2022-12-18T08:13:27;26.93;;;17.90;;
24277;SDS011;12394;42.692;23.314;2022-12-18T08:16:02;30.93;;;18.23;;
24277;SDS011;12394;42.692;23.314;2022-12-18T08:18:33;32.50;;;17.60;;
24277;SDS011;12394;42.692;23.314;2022-12-18T08:21:12;26.10;;;16.47;;
24277;SDS011;12394;42.692;23.314;2022-12-18T08:23:38;30.40;;;17.83;;
24277;SDS011;12394;42.692;23.314;2022-12-18T08:26:04;28.60;;;15.80;;
24277;SDS011;12394;42.692;23.314;2022-12-18T08:28:30;22.57;;;15.13;;
24277;SDS011;12394;42.692;23.314;2022-12-18T08:30:55;23.73;;;14.20;;
24277;SDS011;12394;42.692;23.314;2022-12-18T08:33:21;25.77;;;16.67;;
24277;SDS011;12394;42.692;23.314;2022-12-18T08:35:46;28.80;;;17.03;;
24277;SDS011;12394;42.692;23.314;2022-12-18T08:38:12;28.33;;;15.97;;
24277;SDS011;12394;42.692;23.314;2022-12-18T08:40:37;28.47;;;16.40;;
24277;SDS011;12394;42.692;23.314;2022-12-18T08:43:02;26.30;;;15.60;;
24277;SDS011;12394;42.692;23.314;2022-12-18T08:45:46;29.93;;;17.20;;
24277;SDS011;12394;42.692;23.314;2022-12-18T08:48:12;24.17;;;17.17;;
24277;SDS011;12394;42.692;23.314;2022-12-18T08:50:37;28.07;;;16.30;;
24277;SDS011;12394;42.692;23.314;2022-12-18T08:53:02;25.80;;;17.60;;
24277;SDS011;12394;42.692;23.314;2022-12-18T08:55:28;27.00;;;15.47;;
24277;SDS011;12394;42.692;23.314;2022-12-18T08:57:53;21.67;;;13.93;;
24277;SDS011;12394;42.692;23.314;2022-12-18T09:00:19;24.17;;;14.40;;
24277;SDS011;12394;42.692;23.314;2022-12-18T09:02:45;24.93;;;14.60;;
24277;SDS011;12394;42.692;23.314;2022-12-18T09:05:10;30.13;;;16.00;;
24277;SDS011;12394;42.692;23.314;2022-12-18T09:07:36;25.83;;;15.20;;
24277;SDS011;12394;42.692;23.314;2022-12-18T09:10:01;21.80;;;13.67;;
24277;SDS011;12394;42.692;23.314;2022-12-18T09:12:27;21.53;;;13.27;;
24277;SDS011;12394;42.692;23.314;2022-12-18T09:14:52;24.60;;;14.30;;
24277;SDS011;12394;42.692;23.314;2022-12-18T09:17:17;26.50;;;14.73;;
24277;SDS011;12394;42.692;23.314;2022-12-18T09:19:43;22.43;;;13.40;;
24277;SDS011;12394;42.692;23.314;2022-12-18T09:22:08;24.37;;;13.27;;
24277;SDS011;12394;42.692;23.314;2022-12-18T09:24:34;22.70;;;14.00;;
24277;SDS011;12394;42.692;23.314;2022-12-18T09:27:00;21.80;;;13.33;;
24277;SDS011;12394;42.692;23.314;2022-12-18T09:29:25;22.83;;;13.70;;
24277;SDS011;12394;42.692;23.314;2022-12-18T09:31:51;21.83;;;12.80;;
24277;SDS011;12394;42.692;23.314;2022-12-18T09:34:16;21.03;;;13.43;;
24277;SDS011;12394;42.692;23.314;2022-12-18T09:36:42;21.37;;;12.93;;
24277;SDS011;12394;42.692;23.314;2022-12-18T09:39:08;18.23;;;13.10;;
24277;SDS011;12394;42.692;23.314;2022-12-18T09:44:15;19.73;;;12.50;;
24277;SDS011;12394;42.692;23.314;2022-12-18T09:46:46;21.63;;;14.23;;
24277;SDS011;12394;42.692;23.314;2022-12-18T09:49:20;21.30;;;13.73;;
24277;SDS011;12394;42.692;23.314;2022-12-18T09:51:51;24.93;;;14.30;;
24277;SDS011;12394;42.692;23.314;2022-12-18T09:54:22;20.53;;;13.37;;
24277;SDS011;12394;42.692;23.314;2022-12-18T09:56:51;20.00;;;13.37;;
24277;SDS011;12394;42.692;23.314;2022-12-18T09:59:34;20.80;;;12.73;;
24277;SDS011;12394;42.692;23.314;2022-12-18T10:02:18;22.27;;;12.73;;
24277;SDS011;12394;42.692;23.314;2022-12-18T10:04:49;17.20;;;10.53;;
24277;SDS011;12394;42.692;23.314;2022-12-18T10:07:22;18.63;;;11.63;;
24277;SDS011;12394;42.692;23.314;2022-12-18T10:15:07;19.20;;;12.93;;
24277;SDS011;12394;42.692;23.314;2022-12-18T10:17:47;18.50;;;11.70;;
24277;SDS011;12394;42.692;23.314;2022-12-18T10:25:34;22.97;;;15.00;;
24277;SDS011;12394;42.692;23.314;2022-12-18T10:28:13;22.40;;;12.53;;
24277;SDS011;12394;42.692;23.314;2022-12-18T10:30:40;26.30;;;14.63;;
24277;SDS011;12394;42.692;23.314;2022-12-18T10:33:11;23.83;;;12.93;;
24277;SDS011;12394;42.692;23.314;2022-12-18T10:35:42;19.07;;;12.57;;
24277;SDS011;12394;42.692;23.314;2022-12-18T10:40:50;21.13;;;12.73;;
24277;SDS011;12394;42.692;23.314;2022-12-18T10:43:36;21.10;;;13.03;;
24277;SDS011;12394;42.692;23.314;2022-12-18T10:48:34;23.80;;;14.97;;
24277;SDS011;12394;42.692;23.314;2022-12-18T10:51:33;23.90;;;14.00;;
24277;SDS011;12394;42.692;23.314;2022-12-18T10:56:31;22.57;;;13.20;;
24277;SDS011;12394;42.692;23.314;2022-12-18T10:59:05;25.30;;;14.37;;
24277;SDS011;12394;42.692;23.314;2022-12-18T11:06:53;22.30;;;13.67;;
24277;SDS011;12394;42.692;23.314;2022-12-18T11:09:28;20.87;;;12.90;;
24277;SDS011;12394;42.692;23.314;2022-12-18T11:11:57;22.53;;;13.70;;
24277;SDS011;12394;42.692;23.314;2022-12-18T11:14:28;17.70;;;11.20;;
24277;SDS011;12394;42.692;23.314;2022-12-18T11:16:56;18.60;;;11.90;;
24277;SDS011;12394;42.692;23.314;2022-12-18T11:21:59;21.43;;;12.83;;
24277;SDS011;12394;42.692;23.314;2022-12-18T11:24:33;19.20;;;13.67;;
24277;SDS011;12394;42.692;23.314;2022-12-18T11:27:02;20.40;;;13.03;;
24277;SDS011;12394;42.692;23.314;2022-12-18T11:29:37;22.50;;;13.73;;
24277;SDS011;12394;42.692;23.314;2022-12-18T11:35:03;23.77;;;15.87;;
24277;SDS011;12394;42.692;23.314;2022-12-18T11:37:39;24.03;;;14.73;;
24277;SDS011;12394;42.692;23.314;2022-12-18T11:40:13;24.57;;;14.17;;
24277;SDS011;12394;42.692;23.314;2022-12-18T11:45:46;21.07;;;13.47;;
24277;SDS011;12394;42.692;23.314;2022-12-18T11:53:12;23.77;;;13.63;;
24277;SDS011;12394;42.692;23.314;2022-12-18T12:01:16;22.17;;;13.50;;
24277;SDS011;12394;42.692;23.314;2022-12-18T12:23:53;25.47;;;14.87;;
24277;SDS011;12394;42.692;23.314;2022-12-18T12:26:35;23.90;;;13.73;;
24277;SDS011;12394;42.692;23.314;2022-12-18T12:34:23;27.23;;;14.70;;
24277;SDS011;12394;42.692;23.314;2022-12-18T12:37:07;20.33;;;12.70;;
24277;SDS011;12394;42.692;23.314;2022-12-18T12:39:51;23.60;;;14.33;;
24277;SDS011;12394;42.692;23.314;2022-12-18T12:48:04;25.03;;;15.07;;
24277;SDS011;12394;42.692;23.314;2022-12-18T12:50:33;22.97;;;14.30;;
24277;SDS011;12394;42.692;23.314;2022-12-18T12:53:00;25.20;;;15.60;;
24277;SDS011;12394;42.692;23.314;2022-12-18T12:55:28;27.40;;;14.63;;
24277;SDS011;12394;42.692;23.314;2022-12-18T12:57:56;23.23;;;14.63;;
24277;SDS011;12394;42.692;23.314;2022-12-18T13:00:23;23.00;;;14.10;;
24277;SDS011;12394;42.692;23.314;2022-12-18T13:05:44;20.63;;;12.67;;
24277;SDS011;12394;42.692;23.314;2022-12-18T13:08:25;21.83;;;13.20;;
24277;SDS011;12394;42.692;23.314;2022-12-18T13:10:56;20.10;;;12.43;;
24277;SDS011;12394;42.692;23.314;2022-12-18T13:13:48;19.87;;;12.17;;
24277;SDS011;12394;42.692;23.314;2022-12-18T13:16:14;22.37;;;13.13;;
24277;SDS011;12394;42.692;23.314;2022-12-18T13:18:48;24.67;;;13.67;;
24277;SDS011;12394;42.692;23.314;2022-12-18T13:21:54;23.30;;;14.53;;
24277;SDS011;12394;42.692;23.314;2022-12-18T13:24:25;23.67;;;15.13;;
24277;SDS011;12394;42.692;23.314;2022-12-18T13:26:55;23.27;;;14.20;;
24277;SDS011;12394;42.692;23.314;2022-12-18T13:32:10;28.63;;;14.90;;
24277;SDS011;12394;42.692;23.314;2022-12-18T13:34:45;28.17;;;16.07;;
24277;SDS011;12394;42.692;23.314;2022-12-18T13:39:59;27.00;;;16.83;;
24277;SDS011;12394;42.692;23.314;2022-12-18T13:42:36;25.63;;;16.03;;
24277;SDS011;12394;42.692;23.314;2022-12-18T13:45:43;25.43;;;15.53;;
24277;SDS011;12394;42.692;23.314;2022-12-18T13:48:15;25.30;;;14.87;;
24277;SDS011;12394;42.692;23.314;2022-12-18T13:50:43;26.23;;;15.90;;
24277;SDS011;12394;42.692;23.314;2022-12-18T13:53:25;26.80;;;14.47;;
24277;SDS011;12394;42.692;23.314;2022-12-18T13:55:53;33.87;;;13.37;;
24277;SDS011;12394;42.692;23.314;2022-12-18T13:58:20;23.07;;;13.90;;
24277;SDS011;12394;42.692;23.314;2022-12-18T14:00:45;21.55;;;13.35;;
24277;SDS011;12394;42.692;23.314;2022-12-18T14:03:18;21.23;;;14.37;;
24277;SDS011;12394;42.692;23.314;2022-12-18T14:06:06;18.33;;;12.70;;
24277;SDS011;12394;42.692;23.314;2022-12-18T14:08:35;21.47;;;13.00;;
24277;SDS011;12394;42.692;23.314;2022-12-18T14:11:06;20.33;;;12.80;;
24277;SDS011;12394;42.692;23.314;2022-12-18T14:13:37;18.13;;;11.33;;
24277;SDS011;12394;42.692;23.314;2022-12-18T14:16:07;19.87;;;12.10;;
24277;SDS011;12394;42.692;23.314;2022-12-18T14:18:46;17.33;;;11.07;;
24277;SDS011;12394;42.692;23.314;2022-12-18T14:21:21;19.47;;;11.60;;
24277;SDS011;12394;42.692;23.314;2022-12-18T14:24:02;18.93;;;11.83;;
24277;SDS011;12394;42.692;23.314;2022-12-18T14:29:29;21.30;;;12.33;;
24277;SDS011;12394;42.692;23.314;2022-12-18T14:32:10;22.10;;;11.53;;
24277;SDS011;12394;42.692;23.314;2022-12-18T14:34:46;22.20;;;12.20;;
24277;SDS011;12394;42.692;23.314;2022-12-18T14:37:20;20.63;;;11.83;;
24277;SDS011;12394;42.692;23.314;2022-12-18T14:42:23;19.63;;;12.20;;
24277;SDS011;12394;42.692;23.314;2022-12-18T14:45:17;21.67;;;12.67;;
24277;SDS011;12394;42.692;23.314;2022-12-18T14:54:30;21.63;;;12.63;;
24277;SDS011;12394;42.692;23.314;2022-12-18T14:59:28;21.83;;;12.10;;
24277;SDS011;12394;42.692;23.314;2022-12-18T15:04:39;17.83;;;10.43;;
24277;SDS011;12394;42.692;23.314;2022-12-18T15:07:21;15.23;;;9.60;;
24277;SDS011;12394;42.692;23.314;2022-12-18T15:20:28;17.20;;;11.00;;
24277;SDS011;12394;42.692;23.314;2022-12-18T15:22:57;16.33;;;10.63;;
24277;SDS011;12394;42.692;23.314;2022-12-18T15:25:32;19.00;;;10.87;;
24277;SDS011;12394;42.692;23.314;2022-12-18T15:28:13;19.10;;;10.37;;
24277;SDS011;12394;42.692;23.314;2022-12-18T15:36:38;20.20;;;10.90;;
24277;SDS011;12394;42.692;23.314;2022-12-18T15:39:04;20.50;;;11.10;;
24277;SDS011;12394;42.692;23.314;2022-12-18T15:41:30;19.73;;;10.87;;
24277;SDS011;12394;42.692;23.314;2022-12-18T15:43:58;17.57;;;10.60;;
24277;SDS011;12394;42.692;23.314;2022-12-18T15:46:24;21.47;;;12.13;;
24277;SDS011;12394;42.692;23.314;2022-12-18T15:48:55;19.77;;;11.73;;
24277;SDS011;12394;42.692;23.314;2022-12-18T15:51:28;18.10;;;11.03;;
24277;SDS011;12394;42.692;23.314;2022-12-18T15:54:00;21.37;;;11.77;;
24277;SDS011;12394;42.692;23.314;2022-12-18T15:56:28;19.67;;;11.43;;
24277;SDS011;12394;42.692;23.314;2022-12-18T15:59:13;18.30;;;10.87;;
24277;SDS011;12394;42.692;23.314;2022-12-18T16:01:43;19.93;;;11.97;;
24277;SDS011;12394;42.692;23.314;2022-12-18T16:04:14;22.00;;;12.40;;
24277;SDS011;12394;42.692;23.314;2022-12-18T16:06:41;19.70;;;11.97;;
24277;SDS011;12394;42.692;23.314;2022-12-18T16:09:07;19.60;;;11.93;;
24277;SDS011;12394;42.692;23.314;2022-12-18T16:11:33;19.57;;;11.77;;
24277;SDS011;12394;42.692;23.314;2022-12-18T16:16:46;20.00;;;11.97;;
24277;SDS011;12394;42.692;23.314;2022-12-18T16:19:13;21.17;;;13.53;;
24277;SDS011;12394;42.692;23.314;2022-12-18T16:21:38;22.13;;;12.10;;
24277;SDS011;12394;42.692;23.314;2022-12-18T16:24:04;25.27;;;13.93;;
24277;SDS011;12394;42.692;23.314;2022-12-18T16:26:30;25.30;;;12.90;;
24277;SDS011;12394;42.692;23.314;2022-12-18T16:28:59;23.13;;;13.63;;
24277;SDS011;12394;42.692;23.314;2022-12-18T16:31:24;22.83;;;13.70;;
24277;SDS011;12394;42.692;23.314;2022-12-18T16:33:49;26.13;;;15.23;;
24277;SDS011;12394;42.692;23.314;2022-12-18T16:36:58;29.70;;;15.80;;
24277;SDS011;12394;42.692;23.314;2022-12-18T16:39:25;30.60;;;15.50;;
24277;SDS011;12394;42.692;23.314;2022-12-18T16:41:51;25.10;;;14.87;;
24277;SDS011;12394;42.692;23.314;2022-12-18T16:44:17;25.27;;;14.90;;
24277;SDS011;12394;42.692;23.314;2022-12-18T16:46:43;25.83;;;14.43;;
24277;SDS011;12394;42.692;23.314;2022-12-18T16:49:12;22.93;;;13.37;;
24277;SDS011;12394;42.692;23.314;2022-12-18T16:51:38;24.57;;;15.23;;
24277;SDS011;12394;42.692;23.314;2022-12-18T16:54:04;29.07;;;15.37;;
24277;SDS011;12394;42.692;23.314;2022-12-18T16:56:30;28.30;;;14.67;;